Time;durP1;ratioP1;P1;durP2;ratioP2;P2;SDS_P1;SDS_P2;PMS_P1;PMS_P2;Temp;Humidity;BMP_temperature;BMP_pressure;BME280_temperature;BME280_humidity;BME280_pressure;Samples;Min_cycle;Max_cycle;Signal;HPM_P1;HPM_P2
2021/09/01 00:00:05;;;;;;;2.83;1.70;;;15.90;99.90;;;;;;5014563;28;20214;-70
2021/09/01 00:02:32;;;;;;;2.00;1.50;;;15.90;99.90;;;;;;5017565;28;20652;-70
2021/09/01 00:04:59;;;;;;;1.37;1.27;;;15.90;99.90;;;;;;5014157;28;20211;-70
2021/09/01 00:07:26;;;;;;;1.43;1.30;;;15.90;99.90;;;;;;5028409;28;20211;-70
2021/09/01 00:09:53;;;;;;;1.47;1.37;;;16.00;99.90;;;;;;5024998;28;20222;-70
2021/09/01 00:12:19;;;;;;;1.90;1.70;;;15.90;99.90;;;;;;5021302;28;20219;-69
2021/09/01 00:14:46;;;;;;;1.37;1.27;;;15.90;99.90;;;;;;5021591;28;20227;-69
2021/09/01 00:17:14;;;;;;;4.37;2.00;;;15.90;99.90;;;;;;5029561;28;20207;-70
2021/09/01 00:19:41;;;;;;;1.70;1.60;;;15.90;99.90;;;;;;5013174;28;20238;-70
2021/09/01 00:22:08;;;;;;;1.47;1.37;;;15.90;99.90;;;;;;5017921;28;20210;-70
2021/09/01 00:24:35;;;;;;;2.10;1.90;;;15.90;99.90;;;;;;5032366;28;20206;-70
2021/09/01 00:27:02;;;;;;;2.37;1.67;;;15.90;99.90;;;;;;5022630;28;20211;-70
2021/09/01 00:29:29;;;;;;;2.30;1.47;;;15.90;99.90;;;;;;5013423;28;20211;-70
2021/09/01 00:31:55;;;;;;;1.80;1.70;;;15.80;99.90;;;;;;5016501;28;20629;-70
2021/09/01 00:34:24;;;;;;;2.87;2.10;;;15.80;99.90;;;;;;5017417;28;20544;-70
2021/09/01 00:36:50;;;;;;;3.00;2.30;;;15.90;99.90;;;;;;5028523;28;20578;-71
2021/09/01 00:39:17;;;;;;;3.87;2.20;;;15.90;99.90;;;;;;5025795;28;20637;-71
2021/09/01 00:41:44;;;;;;;2.00;1.80;;;15.90;99.90;;;;;;5027497;28;20250;-70
2021/09/01 00:44:20;;;;;;;2.80;2.40;;;15.80;99.90;;;;;;5020309;28;20213;-70
2021/09/01 00:46:48;;;;;;;2.80;2.50;;;15.90;99.90;;;;;;5024637;28;20561;-70
2021/09/01 00:49:15;;;;;;;2.77;1.97;;;15.90;99.90;;;;;;5025481;28;20647;-69
2021/09/01 00:51:44;;;;;;;2.33;1.53;;;15.90;99.90;;;;;;5028250;28;20210;-69
2021/09/01 00:54:14;;;;;;;1.93;1.80;;;15.90;99.90;;;;;;5026276;28;20281;-70
2021/09/01 00:56:44;;;;;;;2.23;1.93;;;15.80;99.90;;;;;;5022482;28;20199;-69
2021/09/01 00:59:15;;;;;;;2.17;1.97;;;15.90;99.90;;;;;;5013739;28;20258;-69
2021/09/01 01:01:43;;;;;;;2.37;2.00;;;15.90;99.90;;;;;;5013844;28;20658;-70
2021/09/01 01:04:10;;;;;;;2.73;1.80;;;15.90;99.90;;;;;;5013845;28;20606;-70
2021/09/01 01:06:37;;;;;;;2.67;1.60;;;15.80;99.90;;;;;;5019085;28;20571;-70
2021/09/01 01:09:05;;;;;;;1.80;1.63;;;15.80;99.90;;;;;;5027575;28;20211;-70
2021/09/01 01:11:32;;;;;;;1.43;1.30;;;15.80;99.90;;;;;;5026917;28;20213;-70
2021/09/01 01:13:59;;;;;;;1.50;1.40;;;15.80;99.90;;;;;;5025368;28;20273;-69
2021/09/01 01:16:27;;;;;;;2.17;1.53;;;15.80;99.90;;;;;;5018633;28;20218;-69
2021/09/01 01:18:55;;;;;;;1.50;1.40;;;15.70;99.90;;;;;;5012833;28;20211;-69
2021/09/01 01:21:23;;;;;;;1.50;1.40;;;15.70;99.90;;;;;;5020247;28;20655;-70
2021/09/01 01:23:51;;;;;;;2.13;1.40;;;15.70;99.90;;;;;;5032355;28;20265;-69
2021/09/01 01:26:20;;;;;;;2.87;1.30;;;15.80;99.90;;;;;;5028708;28;20214;-69
2021/09/01 01:28:52;;;;;;;1.20;1.20;;;15.70;99.90;;;;;;5021615;28;20574;-70
2021/09/01 01:31:19;;;;;;;1.10;1.10;;;15.70;99.90;;;;;;5027263;28;20196;-70
2021/09/01 01:33:45;;;;;;;1.10;1.00;;;15.70;99.90;;;;;;5021037;28;20238;-69
2021/09/01 01:36:12;;;;;;;1.53;1.43;;;15.70;99.90;;;;;;5021412;28;20231;-69
2021/09/01 01:38:39;;;;;;;1.43;1.33;;;15.70;99.90;;;;;;5025956;28;20230;-69
2021/09/01 01:41:06;;;;;;;2.10;1.80;;;15.70;99.90;;;;;;5031323;28;20234;-69
2021/09/01 01:43:36;;;;;;;2.40;1.50;;;15.70;99.90;;;;;;5022955;28;20220;-70
2021/09/01 01:46:04;;;;;;;1.47;1.37;;;15.70;99.90;;;;;;5026754;28;20212;-69
2021/09/01 01:48:31;;;;;;;1.27;1.17;;;15.60;99.90;;;;;;5013648;28;20207;-69
2021/09/01 01:50:58;;;;;;;1.67;1.53;;;15.70;99.90;;;;;;5028607;28;20218;-70
2021/09/01 01:53:24;;;;;;;1.50;1.30;;;15.70;99.90;;;;;;5032756;28;20565;-69
2021/09/01 01:55:51;;;;;;;1.63;1.43;;;15.60;99.90;;;;;;5026399;28;20227;-69
2021/09/01 01:58:18;;;;;;;2.63;1.80;;;15.60;99.90;;;;;;5025866;28;20213;-69
2021/09/01 02:00:46;;;;;;;1.73;1.57;;;15.60;99.90;;;;;;5019427;28;20678;-70
2021/09/01 02:03:13;;;;;;;3.03;1.73;;;15.60;99.90;;;;;;5020504;28;20210;-69
2021/09/01 02:05:40;;;;;;;1.67;1.30;;;15.60;99.90;;;;;;5029738;28;20214;-69
2021/09/01 02:08:07;;;;;;;1.27;1.10;;;15.60;99.90;;;;;;5023232;28;20201;-69
2021/09/01 02:10:34;;;;;;;1.73;1.40;;;15.60;99.90;;;;;;5028049;28;20208;-69
2021/09/01 02:13:01;;;;;;;1.20;1.20;;;15.60;99.90;;;;;;5026455;28;20587;-69
2021/09/01 02:15:28;;;;;;;1.43;1.10;;;15.60;99.90;;;;;;5022361;28;20225;-69
2021/09/01 02:17:56;;;;;;;1.73;1.50;;;15.60;99.90;;;;;;5012585;28;20571;-69
2021/09/01 02:20:23;;;;;;;2.63;1.77;;;15.60;99.90;;;;;;5024586;28;20210;-69
2021/09/01 02:22:50;;;;;;;1.87;1.47;;;15.50;99.90;;;;;;5013338;28;20690;-69
2021/09/01 02:25:16;;;;;;;1.80;1.60;;;15.60;99.90;;;;;;5017433;28;20199;-69
2021/09/01 02:27:43;;;;;;;1.43;1.33;;;15.60;99.90;;;;;;5028510;28;20652;-69
2021/09/01 02:30:12;;;;;;;1.87;1.67;;;15.50;99.90;;;;;;5011973;28;20222;-70
2021/09/01 02:32:39;;;;;;;2.40;1.70;;;15.50;99.90;;;;;;5024884;28;20275;-70
2021/09/01 02:35:08;;;;;;;2.87;1.70;;;15.50;99.90;;;;;;5027008;28;20249;-70
2021/09/01 02:37:35;;;;;;;1.93;1.53;;;15.50;99.90;;;;;;5030848;28;20237;-70
2021/09/01 02:40:02;;;;;;;1.53;1.43;;;15.50;99.90;;;;;;5018314;28;20646;-69
2021/09/01 02:42:29;;;;;;;1.80;1.37;;;15.50;99.90;;;;;;5031174;28;20199;-70
2021/09/01 02:44:57;;;;;;;1.27;1.20;;;15.50;99.90;;;;;;5016159;28;20199;-69
2021/09/01 02:47:24;;;;;;;1.20;1.10;;;15.50;99.90;;;;;;5032217;28;20211;-69
2021/09/01 02:49:51;;;;;;;1.50;1.40;;;15.40;99.90;;;;;;5016074;28;20207;-69
2021/09/01 02:52:19;;;;;;;1.60;1.30;;;15.40;99.90;;;;;;5028220;28;20213;-70
2021/09/01 02:54:46;;;;;;;2.23;1.30;;;15.40;99.90;;;;;;5033735;28;20238;-70
2021/09/01 02:57:12;;;;;;;1.90;1.60;;;15.40;99.90;;;;;;5031346;28;20552;-70
2021/09/01 02:59:39;;;;;;;1.40;1.27;;;15.30;99.90;;;;;;5026259;28;20567;-69
2021/09/01 03:02:06;;;;;;;2.53;1.40;;;15.30;99.90;;;;;;5030750;28;20714;-70
2021/09/01 03:04:33;;;;;;;1.63;1.40;;;15.40;99.90;;;;;;5025788;28;20230;-69
2021/09/01 03:06:59;;;;;;;2.07;1.60;;;15.40;99.90;;;;;;5025744;28;20234;-69
2021/09/01 03:09:27;;;;;;;1.90;1.70;;;15.30;99.90;;;;;;5026740;28;20203;-71
2021/09/01 03:11:54;;;;;;;1.73;1.63;;;15.30;99.90;;;;;;5035344;28;20207;-69
2021/09/01 03:14:21;;;;;;;2.67;1.50;;;15.40;99.90;;;;;;5026245;28;20202;-70
2021/09/01 03:16:48;;;;;;;2.37;1.90;;;15.30;99.90;;;;;;5035106;28;20537;-70
2021/09/01 03:19:15;;;;;;;1.70;1.60;;;15.30;99.90;;;;;;5020453;28;20219;-69
2021/09/01 03:21:41;;;;;;;2.17;1.70;;;15.30;99.90;;;;;;5015172;28;20207;-70
2021/09/01 03:24:08;;;;;;;2.07;1.87;;;15.30;99.90;;;;;;5029426;28;20221;-70
2021/09/01 03:26:36;;;;;;;2.37;2.13;;;15.30;99.90;;;;;;5023739;28;20195;-70
2021/09/01 03:29:03;;;;;;;2.37;2.00;;;15.30;99.90;;;;;;5016899;28;20207;-70
2021/09/01 03:31:30;;;;;;;2.57;2.07;;;15.30;99.90;;;;;;5029473;28;20219;-70
2021/09/01 03:33:57;;;;;;;2.50;2.17;;;15.30;99.90;;;;;;5028159;28;20217;-71
2021/09/01 03:36:23;;;;;;;3.57;1.97;;;15.20;99.90;;;;;;5030931;28;20294;-69
2021/09/01 03:38:50;;;;;;;2.70;2.00;;;15.20;99.90;;;;;;5024310;28;20207;-70
2021/09/01 03:41:17;;;;;;;2.40;1.90;;;15.30;99.90;;;;;;5019371;28;20695;-69
2021/09/01 03:43:45;;;;;;;2.40;2.20;;;15.20;99.90;;;;;;5025853;28;20211;-69
2021/09/01 03:46:12;;;;;;;3.03;2.30;;;15.20;99.90;;;;;;5029070;28;20658;-70
2021/09/01 03:48:39;;;;;;;3.57;2.00;;;15.10;99.90;;;;;;5015158;28;20199;-69
2021/09/01 03:51:06;;;;;;;2.30;2.00;;;15.20;99.90;;;;;;5026907;28;20211;-70
2021/09/01 03:53:33;;;;;;;2.80;2.50;;;15.20;99.90;;;;;;5028699;28;20210;-70
2021/09/01 03:56:00;;;;;;;3.60;2.63;;;15.20;99.90;;;;;;5034061;28;20222;-70
2021/09/01 03:58:26;;;;;;;2.57;2.23;;;15.20;99.90;;;;;;5021105;28;20207;-70
2021/09/01 04:00:54;;;;;;;2.37;2.17;;;15.20;99.90;;;;;;5028643;28;20206;-70
2021/09/01 04:03:21;;;;;;;2.33;2.13;;;15.20;99.90;;;;;;5033403;28;20202;-70
2021/09/01 04:05:48;;;;;;;2.27;2.07;;;15.10;99.90;;;;;;5018557;28;20207;-70
2021/09/01 04:08:15;;;;;;;5.30;2.17;;;15.20;99.90;;;;;;5014911;28;20211;-69
2021/09/01 04:10:41;;;;;;;4.53;2.17;;;15.20;99.90;;;;;;5025287;28;20564;-69
2021/09/01 04:13:08;;;;;;;2.57;2.37;;;15.20;99.90;;;;;;5023646;28;20207;-70
2021/09/01 04:15:35;;;;;;;2.60;2.40;;;15.20;99.90;;;;;;5025184;28;20679;-69
2021/09/01 04:18:03;;;;;;;3.80;2.57;;;15.20;99.90;;;;;;5034751;28;20213;-70
2021/09/01 04:20:30;;;;;;;3.73;2.37;;;15.20;99.90;;;;;;5033887;28;20696;-69
2021/09/01 04:22:56;;;;;;;3.33;2.80;;;15.20;99.90;;;;;;5020057;28;20214;-69
2021/09/01 04:25:23;;;;;;;2.93;2.63;;;15.10;99.90;;;;;;5026060;28;20218;-69
2021/09/01 04:27:50;;;;;;;3.03;2.40;;;15.20;99.90;;;;;;5015022;28;20211;-69
2021/09/01 04:30:17;;;;;;;3.77;2.77;;;15.20;99.90;;;;;;5023370;28;20202;-70
2021/09/01 04:32:44;;;;;;;3.70;3.37;;;15.10;99.90;;;;;;5022701;28;20247;-69
2021/09/01 04:35:12;;;;;;;4.47;3.43;;;15.10;99.90;;;;;;5028672;28;20234;-69
2021/09/01 04:37:39;;;;;;;4.17;3.63;;;15.10;99.90;;;;;;5027067;28;20231;-69
2021/09/01 04:40:07;;;;;;;6.50;3.37;;;15.10;99.90;;;;;;5013790;28;20265;-69
2021/09/01 04:42:34;;;;;;;6.83;4.17;;;15.10;99.90;;;;;;5013432;28;20208;-69
2021/09/01 04:45:00;;;;;;;4.93;4.17;;;15.10;99.90;;;;;;5018543;28;20211;-68
2021/09/01 04:47:27;;;;;;;5.50;4.50;;;15.10;99.90;;;;;;5021547;28;20215;-69
2021/09/01 04:49:55;;;;;;;5.10;4.57;;;15.10;99.90;;;;;;5027369;28;20214;-69
2021/09/01 04:52:23;;;;;;;5.00;4.50;;;15.10;99.90;;;;;;5017089;28;20210;-69
2021/09/01 04:54:50;;;;;;;6.10;5.07;;;15.10;99.90;;;;;;5024242;28;20687;-68
2021/09/01 04:57:17;;;;;;;6.10;4.77;;;15.10;99.90;;;;;;5015623;28;20214;-68
2021/09/01 04:59:43;;;;;;;7.33;5.30;;;15.20;99.90;;;;;;5018041;28;20203;-68
2021/09/01 05:02:10;;;;;;;8.17;5.70;;;15.10;99.90;;;;;;5019839;28;20211;-68
2021/09/01 05:04:37;;;;;;;6.00;5.40;;;15.10;99.90;;;;;;5030460;28;20211;-70
2021/09/01 05:07:04;;;;;;;7.03;5.87;;;15.10;99.90;;;;;;5020084;28;20207;-69
2021/09/01 05:09:32;;;;;;;6.27;5.50;;;15.10;99.90;;;;;;5033426;28;20210;-68
2021/09/01 05:11:59;;;;;;;7.30;5.70;;;15.10;99.90;;;;;;5033867;28;20214;-68
2021/09/01 05:14:26;;;;;;;6.60;5.90;;;15.20;99.90;;;;;;5021949;28;20579;-68
2021/09/01 05:16:52;;;;;;;8.27;6.00;;;15.20;99.90;;;;;;5029552;28;20743;-70
2021/09/01 05:19:19;;;;;;;9.03;6.80;;;15.20;99.90;;;;;;5028269;28;20211;-67
2021/09/01 05:21:51;;;;;;;7.80;5.90;;;15.10;99.90;;;;;;5031823;28;20203;-69
2021/09/01 05:24:30;;;;;;;8.17;6.40;;;15.10;99.90;;;;;;5028848;28;20290;-69
2021/09/01 05:27:08;;;;;;;8.80;6.60;;;15.10;99.90;;;;;;5019142;28;20625;-67
2021/09/01 05:29:39;;;;;;;7.73;6.50;;;15.20;99.90;;;;;;5017369;28;20636;-67
2021/09/01 05:32:08;;;;;;;8.27;6.23;;;15.20;99.90;;;;;;5017690;28;20207;-67
2021/09/01 05:34:35;;;;;;;9.00;6.03;;;15.20;99.90;;;;;;5030726;28;20210;-69
2021/09/01 05:37:02;;;;;;;8.77;6.37;;;15.20;99.90;;;;;;5032218;28;20241;-69
2021/09/01 05:39:29;;;;;;;9.20;6.87;;;15.20;99.90;;;;;;5019197;28;20208;-69
2021/09/01 05:41:56;;;;;;;10.87;6.90;;;15.20;99.90;;;;;;5017781;28;20223;-69
2021/09/01 05:44:26;;;;;;;9.00;7.00;;;15.30;99.90;;;;;;5019195;28;20210;-69
2021/09/01 05:46:54;;;;;;;8.63;6.90;;;15.20;99.90;;;;;;5032581;28;20217;-69
2021/09/01 05:49:22;;;;;;;7.77;6.77;;;15.30;99.90;;;;;;5032495;28;20214;-69
2021/09/01 05:51:50;;;;;;;7.30;6.33;;;15.30;99.90;;;;;;5031527;28;20200;-68
2021/09/01 05:54:16;;;;;;;8.73;6.77;;;15.30;99.90;;;;;;5022274;28;20302;-70
2021/09/01 05:56:47;;;;;;;7.43;6.10;;;15.30;99.90;;;;;;5019562;28;20234;-67
2021/09/01 05:59:17;;;;;;;8.60;6.90;;;15.30;99.90;;;;;;5026043;28;20215;-69
2021/09/01 06:01:54;;;;;;;9.30;6.80;;;15.30;99.90;;;;;;5020672;28;20207;-70
2021/09/01 06:04:25;;;;;;;8.73;6.80;;;15.40;99.90;;;;;;5021172;28;20218;-70
2021/09/01 06:06:54;;;;;;;8.67;6.93;;;15.40;99.90;;;;;;5039871;28;20206;-67
2021/09/01 06:09:21;;;;;;;9.77;7.23;;;15.40;99.90;;;;;;5043739;28;20207;-71
2021/09/01 06:11:53;;;;;;;7.17;6.17;;;15.40;99.90;;;;;;5030966;28;20217;-68
2021/09/01 06:14:20;;;;;;;12.30;7.10;;;15.50;99.90;;;;;;5019530;28;20215;-70
2021/09/01 06:16:48;;;;;;;7.80;6.57;;;15.50;99.90;;;;;;5013322;28;20227;-68
2021/09/01 06:19:15;;;;;;;9.53;6.57;;;15.50;99.90;;;;;;5018434;28;20211;-69
2021/09/01 06:21:42;;;;;;;8.83;6.60;;;15.60;99.90;;;;;;5019799;28;20613;-68
2021/09/01 06:24:09;;;;;;;10.63;6.27;;;15.60;99.90;;;;;;5015970;28;20203;-71
2021/09/01 06:26:35;;;;;;;8.23;6.33;;;15.60;99.90;;;;;;5015789;28;20211;-68
2021/09/01 06:29:02;;;;;;;9.10;6.93;;;15.70;99.90;;;;;;5033207;28;20225;-69
2021/09/01 06:31:34;;;;;;;7.50;6.20;;;15.70;99.90;;;;;;5027090;28;20206;-70
2021/09/01 06:34:03;;;;;;;9.37;6.50;;;15.70;99.90;;;;;;5037884;28;20219;-68
2021/09/01 06:36:29;;;;;;;9.13;6.37;;;15.80;99.90;;;;;;5037680;28;20230;-67
2021/09/01 06:38:56;;;;;;;9.03;5.80;;;15.70;99.90;;;;;;5036119;28;20202;-68
2021/09/01 06:41:23;;;;;;;9.50;6.10;;;15.70;99.90;;;;;;5033078;28;20234;-70
2021/09/01 06:43:50;;;;;;;8.47;6.47;;;15.70;99.90;;;;;;5029814;28;20206;-70
2021/09/01 06:46:17;;;;;;;8.40;6.27;;;15.80;99.90;;;;;;5034441;28;20217;-68
2021/09/01 06:48:44;;;;;;;7.93;6.50;;;15.90;99.90;;;;;;5025526;28;20226;-68
2021/09/01 06:51:12;;;;;;;8.13;5.97;;;15.90;99.90;;;;;;5035615;28;20679;-68
2021/09/01 06:53:39;;;;;;;7.33;5.60;;;16.00;99.90;;;;;;5032324;28;20651;-70
2021/09/01 06:56:06;;;;;;;7.77;5.63;;;16.10;99.90;;;;;;5034576;28;20226;-70
2021/09/01 06:58:35;;;;;;;8.17;6.10;;;16.10;99.90;;;;;;5035464;28;20207;-67
2021/09/01 07:01:01;;;;;;;8.13;5.43;;;16.20;99.90;;;;;;5034911;28;20836;-67
2021/09/01 07:03:28;;;;;;;7.10;5.13;;;16.30;99.90;;;;;;5035955;28;20210;-67
2021/09/01 07:05:55;;;;;;;11.03;5.67;;;16.30;99.90;;;;;;5033994;28;20218;-67
2021/09/01 07:08:23;;;;;;;8.93;5.83;;;16.40;99.90;;;;;;5034436;28;20277;-70
2021/09/01 07:10:52;;;;;;;10.50;6.13;;;16.30;99.90;;;;;;5032324;28;20198;-69
2021/09/01 07:13:21;;;;;;;7.13;5.20;;;16.30;99.90;;;;;;5033685;28;20202;-71
2021/09/01 07:15:48;;;;;;;6.77;4.93;;;16.20;99.90;;;;;;5034801;28;20236;-71
2021/09/01 07:18:16;;;;;;;8.30;6.03;;;16.10;99.90;;;;;;5030939;28;20214;-70
2021/09/01 07:20:44;;;;;;;7.87;5.70;;;16.20;99.90;;;;;;5032697;28;20210;-70
2021/09/01 07:23:11;;;;;;;5.60;4.77;;;16.30;99.90;;;;;;5036878;28;20582;-70
2021/09/01 07:25:39;;;;;;;7.77;6.10;;;16.60;99.90;;;;;;5035216;28;20253;-71
2021/09/01 07:28:07;;;;;;;6.37;5.33;;;16.60;99.90;;;;;;5028372;28;20222;-69
2021/09/01 07:30:34;;;;;;;6.67;5.50;;;16.80;99.90;;;;;;5035999;28;20293;-69
2021/09/01 07:33:00;;;;;;;11.10;5.73;;;17.00;99.90;;;;;;5029729;28;20203;-69
2021/09/01 07:35:27;;;;;;;8.20;5.00;;;17.10;99.90;;;;;;5034228;28;20206;-69
2021/09/01 07:37:54;;;;;;;7.57;5.37;;;17.30;99.90;;;;;;5034894;28;20227;-69
2021/09/01 07:40:23;;;;;;;7.20;4.90;;;17.50;99.90;;;;;;5030176;28;20253;-69
2021/09/01 07:42:51;;;;;;;8.90;5.07;;;17.70;99.90;;;;;;5036009;28;20195;-70
2021/09/01 07:45:19;;;;;;;7.20;5.25;;;17.90;99.90;;;;;;5035133;28;20206;-70
2021/09/01 07:47:48;;;;;;;5.70;4.70;;;18.00;99.90;;;;;;5034480;28;20219;-68
2021/09/01 07:50:15;;;;;;;6.23;4.70;;;18.30;99.90;;;;;;5034645;28;20671;-69
2021/09/01 07:52:41;;;;;;;8.07;4.37;;;18.50;99.90;;;;;;5035051;28;20206;-68
2021/09/01 07:55:09;;;;;;;7.87;5.17;;;18.70;99.90;;;;;;5025684;28;20546;-68
2021/09/01 07:57:36;;;;;;;5.33;4.70;;;18.80;99.90;;;;;;5035477;28;20215;-69
2021/09/01 08:00:05;;;;;;;5.25;4.15;;;19.00;99.90;;;;;;5024162;28;20596;-66
2021/09/01 08:02:32;;;;;;;6.10;4.35;;;19.20;99.90;;;;;;5026361;28;20230;-67
2021/09/01 08:04:59;;;;;;;5.35;4.10;;;19.40;99.90;;;;;;5022319;28;20215;-68
2021/09/01 08:07:26;;;;;;;7.07;4.45;;;19.50;99.90;;;;;;5033024;28;20199;-67
2021/09/01 08:09:53;;;;;;;5.40;4.13;;;19.70;99.90;;;;;;5034040;28;20213;-67
2021/09/01 08:12:20;;;;;;;6.50;4.13;;;19.80;99.90;;;;;;5033633;28;20643;-67
2021/09/01 08:14:46;;;;;;;5.45;4.32;;;19.90;99.90;;;;;;5033946;28;20205;-68
2021/09/01 08:17:15;;;;;;;5.40;3.92;;;20.00;99.90;;;;;;5033859;28;20242;-68
2021/09/01 08:19:42;;;;;;;4.93;3.88;;;20.10;99.90;;;;;;5034201;28;20328;-68
2021/09/01 08:22:09;;;;;;;5.85;3.90;;;20.10;99.90;;;;;;5027694;28;20211;-69
2021/09/01 08:24:38;;;;;;;5.18;3.78;;;20.10;99.90;;;;;;5033449;28;20211;-68
2021/09/01 08:27:05;;;;;;;5.40;3.90;;;20.10;99.90;;;;;;5033774;28;20230;-68
2021/09/01 08:29:32;;;;;;;4.35;3.33;;;20.00;99.90;;;;;;5034624;28;20207;-71
2021/09/01 08:31:59;;;;;;;6.20;3.53;;;20.00;99.90;;;;;;5035711;28;20217;-68
2021/09/01 08:34:28;;;;;;;7.47;3.42;;;19.90;99.90;;;;;;5034166;28;20207;-68
2021/09/01 08:36:55;;;;;;;5.35;3.38;;;19.80;99.90;;;;;;5033014;28;20639;-69
2021/09/01 08:39:22;;;;;;;5.88;3.58;;;19.80;99.90;;;;;;5032465;28;20266;-69
2021/09/01 08:41:49;;;;;;;6.32;3.60;;;19.70;99.90;;;;;;5028851;28;20238;-68
2021/09/01 08:44:16;;;;;;;5.75;3.47;;;19.70;99.90;;;;;;5022794;28;20217;-68
2021/09/01 08:46:47;;;;;;;6.60;4.00;;;19.50;99.90;;;;;;5032758;28;20203;-68
2021/09/01 08:49:15;;;;;;;6.03;3.90;;;19.30;99.90;;;;;;5031853;28;20237;-68
2021/09/01 08:51:43;;;;;;;6.18;3.60;;;19.20;99.90;;;;;;5033067;28;20229;-69
2021/09/01 08:54:10;;;;;;;6.43;3.95;;;19.00;99.90;;;;;;5028320;28;20203;-69
2021/09/01 08:56:36;;;;;;;5.07;3.80;;;19.00;99.90;;;;;;5027600;28;20237;-68
2021/09/01 08:59:03;;;;;;;5.25;3.42;;;18.90;99.90;;;;;;5032560;28;20211;-69
2021/09/01 09:01:41;;;;;;;6.47;3.80;;;18.90;99.90;;;;;;5022213;28;20218;-68
2021/09/01 09:04:14;;;;;;;6.70;3.90;;;18.90;99.90;;;;;;5017007;28;20210;-68
2021/09/01 09:06:48;;;;;;;4.38;3.60;;;19.30;99.90;;;;;;5031307;28;20198;-68
2021/09/01 09:09:16;;;;;;;3.80;3.50;;;19.70;99.90;;;;;;5032252;28;20544;-68
2021/09/01 09:11:43;;;;;;;4.82;3.92;;;20.10;99.90;;;;;;5032553;28;20213;-68
2021/09/01 09:14:21;;;;;;;7.30;3.90;;;20.50;99.90;;;;;;5034547;28;20214;-68
2021/09/01 09:16:59;;;;;;;4.82;3.70;;;20.90;99.90;;;;;;5047125;28;20305;-67
2021/09/01 09:19:49;;;;;;;4.88;3.90;;;21.20;99.90;;;;;;5033890;28;20206;-67
2021/09/01 09:22:22;;;;;;;4.65;3.85;;;21.40;99.90;;;;;;5022070;28;20774;-68
2021/09/01 09:25:09;;;;;;;4.22;3.35;;;21.60;99.90;;;;;;5032630;28;20275;-68
2021/09/01 09:27:37;;;;;;;4.43;3.65;;;21.70;99.90;;;;;;5031837;28;20290;-68
2021/09/01 09:30:31;;;;;;;5.97;3.90;;;21.80;99.90;;;;;;5033423;28;20623;-69
2021/09/01 09:32:59;;;;;;;9.88;4.00;;;21.70;99.90;;;;;;5032013;28;20211;-68
2021/09/01 09:35:27;;;;;;;6.22;3.90;;;21.70;99.90;;;;;;5027711;28;20210;-68
2021/09/01 09:38:06;;;;;;;7.82;4.32;;;21.70;99.90;;;;;;5031257;28;20693;-68
2021/09/01 09:40:34;;;;;;;4.50;3.78;;;21.80;99.90;;;;;;5031166;28;20372;-68
2021/09/01 09:43:15;;;;;;;5.78;3.55;;;22.00;99.90;;;;;;5030663;28;20222;-67
2021/09/01 09:45:43;;;;;;;4.43;3.85;;;22.10;99.90;;;;;;5024590;28;20563;-68
2021/09/01 09:48:10;;;;;;;7.70;3.78;;;22.40;99.90;;;;;;5022810;28;20233;-67
2021/09/01 09:50:37;;;;;;;4.25;3.40;;;22.60;99.90;;;;;;5020655;28;20194;-67
2021/09/01 09:53:05;;;;;;;4.65;3.75;;;22.60;99.90;;;;;;5019784;28;20208;-67
2021/09/01 09:55:34;;;;;;;3.83;3.50;;;22.60;99.90;;;;;;5021013;28;20215;-68
2021/09/01 09:58:01;;;;;;;4.07;3.67;;;22.60;99.90;;;;;;5017079;28;20223;-67
2021/09/01 10:00:29;;;;;;;6.90;4.18;;;22.50;99.80;;;;;;5017506;28;20218;-68
2021/09/01 10:02:57;;;;;;;4.50;3.60;;;22.30;99.90;;;;;;5016591;28;20217;-68
2021/09/01 10:05:27;;;;;;;7.80;3.42;;;22.20;99.90;;;;;;5031105;28;20229;-67
2021/09/01 10:07:57;;;;;;;5.72;3.30;;;22.40;99.90;;;;;;5025365;28;20207;-68
2021/09/01 10:10:25;;;;;;;4.63;3.45;;;22.60;99.90;;;;;;5028033;28;20595;-71
2021/09/01 10:12:52;;;;;;;3.97;3.38;;;22.70;99.60;;;;;;5012882;28;20213;-66
2021/09/01 10:15:25;;;;;;;4.47;3.03;;;22.60;99.50;;;;;;5017815;28;20743;-67
2021/09/01 10:18:01;;;;;;;5.97;3.13;;;22.40;99.90;;;;;;5017180;28;20215;-66
2021/09/01 10:20:29;;;;;;;5.18;3.20;;;22.40;99.90;;;;;;5030103;28;20294;-67
2021/09/01 10:23:00;;;;;;;3.97;3.05;;;22.60;99.90;;;;;;5031621;28;20631;-67
2021/09/01 10:25:36;;;;;;;4.22;2.72;;;23.00;99.90;;;;;;5031323;28;20211;-68
2021/09/01 10:28:31;;;;;;;4.45;2.92;;;23.50;99.90;;;;;;5030590;28;20210;-67
2021/09/01 10:31:24;;;;;;;3.65;2.60;;;23.80;98.50;;;;;;5026801;28;20199;-68
2021/09/01 10:33:53;;;;;;;8.00;3.17;;;23.80;97.50;;;;;;5030764;28;20647;-66
2021/09/01 10:36:52;;;;;;;3.13;2.70;;;23.70;96.90;;;;;;5032222;28;20230;-66
2021/09/01 10:39:38;;;;;;;4.70;2.38;;;23.70;97.00;;;;;;5027873;28;20207;-66
2021/09/01 10:42:41;;;;;;;4.18;2.60;;;23.80;95.70;;;;;;5020267;28;20206;-67
2021/09/01 10:45:14;;;;;;;4.03;2.35;;;24.00;94.80;;;;;;5019806;28;20661;-67
2021/09/01 10:48:15;;;;;;;2.90;2.47;;;24.30;94.10;;;;;;5027776;28;20206;-67
2021/09/01 10:50:44;;;;;;;4.47;2.55;;;24.50;93.80;;;;;;5041002;28;20214;-66
2021/09/01 10:53:21;;;;;;;3.08;2.65;;;24.70;93.50;;;;;;5032539;28;20211;-67
2021/09/01 10:56:00;;;;;;;2.80;2.30;;;25.10;92.20;;;;;;5026642;28;20187;-67
2021/09/01 10:58:40;;;;;;;3.78;2.53;;;25.20;91.80;;;;;;5029516;28;20214;-67
2021/09/01 11:01:10;;;;;;;2.53;2.25;;;25.30;90.80;;;;;;5014146;28;20203;-68
2021/09/01 11:03:39;;;;;;;3.65;2.35;;;25.40;90.20;;;;;;5020674;28;20293;-67
2021/09/01 11:06:20;;;;;;;2.60;2.10;;;25.50;89.80;;;;;;5021544;28;20257;-67
2021/09/01 11:09:02;;;;;;;4.00;2.00;;;25.70;88.00;;;;;;5018180;28;20610;-68
2021/09/01 11:11:54;;;;;;;2.30;1.88;;;25.70;86.00;;;;;;5016865;28;20539;-68
2021/09/01 11:14:37;;;;;;;3.45;2.50;;;25.50;85.10;;;;;;5021654;28;20274;-67
2021/09/01 11:17:06;;;;;;;5.13;2.65;;;25.20;84.60;;;;;;5016971;28;20609;-66
2021/09/01 11:19:34;;;;;;;6.35;2.47;;;24.80;84.90;;;;;;5028959;28;20671;-68
2021/09/01 11:22:06;;;;;;;3.22;2.22;;;24.60;87.60;;;;;;5021388;28;20206;-67
2021/09/01 11:24:43;;;;;;;2.78;2.10;;;24.60;88.00;;;;;;5021223;28;20254;-67
2021/09/01 11:27:12;;;;;;;3.90;1.92;;;24.80;89.10;;;;;;5016614;28;20663;-68
2021/09/01 11:29:41;;;;;;;2.65;1.98;;;25.00;87.70;;;;;;5019513;28;20253;-68
2021/09/01 11:32:08;;;;;;;2.50;1.98;;;25.20;87.50;;;;;;5024050;28;20211;-67
2021/09/01 11:34:34;;;;;;;4.30;2.00;;;25.40;85.80;;;;;;5026721;28;20529;-69
2021/09/01 11:37:02;;;;;;;4.93;2.50;;;25.50;84.80;;;;;;5026169;28;20226;-68
2021/09/01 11:39:29;;;;;;;3.38;2.10;;;25.50;83.90;;;;;;5023059;28;20230;-67
2021/09/01 11:42:00;;;;;;;4.72;2.05;;;25.60;83.40;;;;;;5023028;28;20221;-68
2021/09/01 11:44:27;;;;;;;2.35;1.63;;;25.90;80.70;;;;;;5022794;28;20662;-69
2021/09/01 11:46:56;;;;;;;3.03;1.80;;;25.90;80.50;;;;;;5028795;28;20217;-69
2021/09/01 11:49:23;;;;;;;1.92;1.63;;;25.90;80.20;;;;;;5019430;28;20209;-68
2021/09/01 11:51:50;;;;;;;2.50;1.77;;;25.80;80.00;;;;;;5024382;28;20221;-68
2021/09/01 11:54:18;;;;;;;3.03;1.90;;;25.80;80.10;;;;;;5018189;28;20207;-67
2021/09/01 11:56:45;;;;;;;1.75;1.30;;;25.70;79.10;;;;;;5024703;28;20308;-68
2021/09/01 11:59:14;;;;;;;2.40;1.92;;;25.80;78.60;;;;;;5023101;28;20233;-68
2021/09/01 12:01:46;;;;;;;4.25;1.55;;;25.90;76.90;;;;;;5027099;28;20210;-67
2021/09/01 12:04:16;;;;;;;3.55;1.50;;;26.00;76.60;;;;;;5033734;28;20211;-68
2021/09/01 12:06:44;;;;;;;2.00;1.50;;;26.10;76.70;;;;;;5024102;28;20215;-69
2021/09/01 12:09:13;;;;;;;3.40;1.23;;;26.40;73.50;;;;;;5021097;28;20204;-67
2021/09/01 12:11:49;;;;;;;1.05;0.95;;;26.50;72.60;;;;;;5026253;28;20221;-68
2021/09/01 12:14:18;;;;;;;2.25;1.20;;;26.70;71.50;;;;;;5033691;28;20636;-68
2021/09/01 12:16:45;;;;;;;2.58;1.45;;;26.70;70.30;;;;;;5033223;28;20215;-69
2021/09/01 12:19:14;;;;;;;2.10;1.30;;;26.50;71.50;;;;;;5031861;28;20253;-69
2021/09/01 12:21:58;;;;;;;5.20;1.17;;;26.40;71.90;;;;;;5032764;28;20207;-69
2021/09/01 12:24:27;;;;;;;1.17;1.00;;;26.30;71.50;;;;;;5032054;28;20289;-69
2021/09/01 12:27:04;;;;;;;1.40;0.90;;;26.00;70.30;;;;;;5023635;28;20206;-69
2021/09/01 12:29:38;;;;;;;1.60;0.90;;;25.60;70.00;;;;;;5030316;28;20190;-69
2021/09/01 12:32:08;;;;;;;2.03;1.00;;;25.30;70.30;;;;;;5032390;28;20238;-69
2021/09/01 12:34:40;;;;;;;4.72;1.45;;;25.00;71.40;;;;;;5026300;28;20212;-69
2021/09/01 12:37:10;;;;;;;1.05;0.90;;;24.70;72.20;;;;;;5032495;28;20273;-68
2021/09/01 12:39:49;;;;;;;0.98;0.88;;;24.50;73.20;;;;;;5032625;28;20209;-69
2021/09/01 12:42:24;;;;;;;2.45;1.10;;;24.50;74.40;;;;;;5032949;28;20237;-69
2021/09/01 12:44:52;;;;;;;1.38;1.00;;;24.60;74.70;;;;;;5032493;28;20651;-67
2021/09/01 12:47:20;;;;;;;2.10;1.20;;;24.80;74.70;;;;;;5024481;28;20214;-69
2021/09/01 12:49:51;;;;;;;2.63;0.95;;;25.00;74.20;;;;;;5032414;28;20214;-70
2021/09/01 12:52:18;;;;;;;2.10;1.30;;;25.00;74.40;;;;;;5031945;28;20238;-68
2021/09/01 12:54:45;;;;;;;1.92;1.10;;;25.00;74.90;;;;;;5020739;28;20211;-69